createdAt,value
2023-06-30T05:27:29.669Z,99.99
2023-06-30T05:28:29.719Z,99.99
2023-06-30T05:29:31.461Z,99.99
2023-06-30T05:30:31.337Z,99.99
2023-06-30T05:31:31.130Z,99.99
2023-06-30T05:32:31.124Z,99.99
2023-06-30T05:33:31.100Z,99.99
2023-06-30T13:45:33.410Z,90.01
2023-06-30T13:46:35.899Z,90.58
2023-06-30T13:47:34.484Z,89.47
2023-06-30T13:48:34.468Z,90.78
2023-06-30T13:49:35.503Z,89.06
2023-06-30T13:50:35.115Z,88.66
2023-06-30T14:23:37.304Z,80.44
2023-06-30T14:24:37.569Z,79.24
2023-06-30T14:25:37.598Z,81.12
2023-06-30T14:26:38.420Z,80.82
2023-06-30T14:27:39.250Z,80.16
2023-06-30T14:28:37.627Z,80.96
2023-06-30T14:29:37.660Z,81.30
2023-06-30T14:30:38.428Z,82.02
2023-06-30T14:31:37.559Z,84.83
2023-06-30T14:32:39.419Z,84.74
2023-06-30T14:33:37.555Z,83.49
2023-06-30T14:34:37.540Z,83.45
2023-06-30T14:35:37.596Z,83.45
2023-06-30T14:36:37.534Z,83.18
2023-06-30T14:37:37.518Z,82.78
2023-06-30T14:38:39.436Z,83.93
2023-06-30T14:39:38.922Z,84.33
2023-06-30T14:40:38.418Z,84.83
2023-06-30T14:41:44.247Z,84.27
2023-06-30T14:42:40.448Z,84.97
2023-06-30T14:43:37.543Z,85.58
2023-06-30T14:44:37.454Z,84.97
2023-06-30T14:45:37.546Z,83.87
2023-06-30T14:46:37.503Z,83.73
2023-06-30T14:47:37.451Z,83.59
2023-06-30T14:48:37.433Z,82.45
2023-06-30T14:49:37.417Z,82.84
2023-06-30T14:50:37.427Z,81.20
2023-06-30T14:51:37.507Z,81.30
2023-06-30T14:52:37.554Z,79.86
2023-06-30T14:53:37.451Z,79.32
2023-06-30T14:54:37.913Z,80.82
2023-06-30T14:55:40.187Z,80.79
2023-06-30T14:56:37.439Z,79.85
2023-06-30T14:57:37.431Z,78.84
2023-06-30T14:58:37.330Z,80.21
2023-06-30T14:59:37.320Z,76.80
2023-06-30T15:00:37.364Z,76.17
2023-06-30T15:01:40.050Z,76.97
2023-06-30T15:02:37.389Z,76.30
2023-06-30T15:03:37.344Z,76.80
2023-06-30T15:04:37.356Z,77.44
2023-06-30T15:05:37.435Z,76.80
2023-06-30T15:06:37.250Z,77.10
2023-06-30T15:07:37.296Z,78.80
2023-06-30T15:08:38.043Z,76.43
2023-06-30T15:09:37.238Z,76.43
2023-06-30T15:10:37.268Z,76.57
2023-06-30T15:11:37.316Z,78.02
2023-06-30T15:12:37.202Z,77.17
2023-06-30T15:13:38.950Z,78.18
2023-06-30T15:14:38.300Z,78.18
2023-06-30T15:15:37.231Z,78.84
2023-06-30T15:16:37.254Z,77.50
2023-06-30T15:17:37.303Z,76.87
2023-06-30T15:18:37.231Z,75.90
2023-06-30T15:19:37.206Z,77.26
2023-06-30T15:20:37.248Z,74.96
2023-06-30T15:21:37.505Z,74.56
2023-06-30T15:22:37.170Z,74.46
2023-06-30T15:23:37.955Z,74.26
2023-06-30T15:24:37.146Z,74.00
2023-06-30T15:25:37.176Z,77.34
2023-06-30T15:26:38.874Z,75.70
2023-06-30T15:27:37.968Z,76.26
2023-06-30T15:28:37.162Z,75.13
2023-06-30T15:29:37.538Z,73.79
2023-06-30T15:30:37.085Z,71.86
2023-06-30T15:31:37.067Z,72.13
2023-06-30T15:32:38.597Z,72.19
2023-06-30T15:33:37.290Z,73.03
2023-06-30T15:34:37.054Z,72.76
2023-06-30T15:35:37.939Z,72.76
2023-06-30T15:36:37.078Z,74.60
2023-06-30T15:37:37.063Z,74.50
2023-06-30T15:38:37.008Z,75.54
2023-06-30T15:39:37.044Z,75.34
2023-06-30T15:40:37.085Z,75.63
2023-06-30T15:41:36.991Z,74.33
2023-06-30T15:42:37.868Z,73.80
2023-06-30T15:43:36.964Z,74.00
2023-06-30T15:44:37.008Z,73.06
2023-06-30T15:45:37.010Z,72.06
2023-06-30T15:46:37.063Z,72.26
2023-06-30T15:47:37.439Z,73.46
2023-06-30T15:48:37.958Z,74.16
2023-06-30T15:49:37.054Z,73.16
2023-06-30T15:50:36.896Z,72.13
2023-06-30T15:51:37.008Z,73.22
2023-06-30T15:52:37.487Z,72.86
2023-06-30T15:53:37.452Z,71.42
2023-06-30T15:54:36.918Z,70.46
2023-06-30T15:55:36.879Z,71.19
2023-06-30T15:56:36.873Z,70.83
2023-06-30T15:57:36.842Z,71.42
2023-06-30T15:58:37.508Z,72.59
2023-06-30T15:59:36.925Z,70.99
2023-06-30T16:00:36.948Z,72.03
2023-06-30T16:01:36.864Z,71.83
2023-06-30T16:02:36.954Z,72.53
2023-06-30T16:03:36.875Z,72.23
2023-06-30T16:04:37.512Z,72.23
2023-06-30T16:06:08.989Z,70.92
2023-06-30T16:07:11.453Z,71.03
2023-06-30T16:07:36.802Z,70.73
2023-06-30T16:08:37.552Z,71.33
2023-06-30T16:09:36.779Z,71.92
2023-06-30T16:10:36.776Z,72.19
2023-06-30T16:11:36.783Z,70.69
2023-06-30T16:12:36.823Z,72.13
2023-06-30T16:13:36.793Z,72.56
2023-06-30T16:14:36.775Z,73.00
2023-06-30T16:15:36.769Z,74.70
2023-06-30T16:16:36.790Z,73.96
2023-06-30T16:17:36.771Z,72.96
2023-06-30T16:18:36.759Z,73.30
2023-06-30T16:19:36.756Z,74.30
2023-06-30T16:20:36.764Z,73.30
2023-06-30T16:21:36.702Z,74.10
2023-06-30T16:23:09.509Z,73.46
2023-06-30T16:24:11.005Z,73.26
2023-06-30T16:24:37.988Z,73.96
2023-06-30T16:25:36.664Z,71.42
2023-06-30T16:26:36.650Z,71.59
2023-06-30T16:27:36.714Z,72.33
2023-06-30T16:28:36.672Z,71.79
2023-06-30T16:29:36.631Z,70.89
2023-06-30T16:30:36.622Z,72.45
2023-06-30T16:31:36.606Z,69.93
2023-06-30T16:32:37.723Z,69.96
2023-06-30T16:33:36.675Z,70.36
2023-06-30T16:34:36.713Z,70.26
2023-06-30T16:35:37.113Z,69.93
2023-06-30T16:36:40.024Z,71.59
2023-06-30T16:37:36.582Z,71.42
2023-06-30T16:38:36.610Z,71.56
2023-06-30T16:39:37.102Z,72.53
2023-06-30T16:40:36.598Z,73.06
2023-06-30T16:41:37.103Z,74.10
2023-06-30T16:42:37.494Z,75.30
2023-06-30T16:43:36.572Z,73.16
2023-06-30T16:44:37.154Z,73.66
2023-06-30T16:45:38.625Z,74.10
2023-06-30T16:46:36.552Z,73.39
2023-06-30T16:47:36.581Z,74.30
2023-06-30T16:48:36.475Z,74.33
2023-06-30T16:49:37.042Z,75.34
2023-06-30T16:50:36.496Z,74.20
2023-06-30T16:51:36.478Z,73.93
2023-06-30T16:52:36.486Z,74.54
2023-06-30T16:53:36.488Z,72.63
2023-06-30T16:54:36.487Z,72.53
2023-06-30T16:55:36.530Z,74.03
2023-06-30T16:56:37.013Z,75.77
2023-06-30T16:57:37.119Z,75.77
2023-06-30T16:58:37.021Z,76.31
2023-06-30T16:59:36.392Z,77.28
2023-06-30T17:00:37.053Z,76.17
2023-06-30T17:01:36.451Z,76.37
2023-06-30T17:02:36.549Z,76.47
2023-06-30T17:03:36.358Z,76.31
2023-06-30T17:04:36.949Z,77.41
2023-06-30T17:05:36.416Z,76.51
2023-06-30T17:06:36.385Z,76.67
2023-06-30T17:07:36.368Z,75.47
2023-06-30T17:08:36.334Z,73.86
2023-06-30T17:09:36.320Z,74.30
2023-06-30T17:10:37.113Z,74.40
2023-06-30T17:11:36.364Z,74.10
2023-06-30T17:12:36.311Z,74.71
2023-06-30T17:13:36.332Z,74.30
2023-06-30T17:14:36.676Z,74.71
2023-06-30T17:15:37.122Z,74.71
2023-06-30T17:16:36.367Z,75.67
2023-06-30T17:17:36.296Z,74.37
2023-06-30T17:18:36.293Z,74.33
2023-06-30T17:19:37.051Z,73.93
2023-06-30T17:20:36.258Z,74.54
2023-06-30T17:21:36.311Z,74.80
2023-06-30T17:22:36.222Z,74.30
2023-06-30T17:23:36.222Z,74.93
2023-06-30T17:24:36.249Z,78.68
2023-06-30T17:25:36.264Z,79.92
2023-06-30T17:26:36.222Z,81.96
2023-06-30T17:27:36.223Z,83.04
2023-06-30T17:28:36.283Z,83.55
2023-06-30T17:29:36.213Z,82.84
2023-06-30T17:30:36.212Z,83.09
2023-06-30T17:31:36.317Z,83.75
2023-06-30T17:32:36.236Z,81.94
2023-06-30T17:33:36.240Z,81.94
2023-06-30T17:34:37.122Z,81.10
2023-06-30T17:35:36.151Z,80.30
2023-06-30T17:36:36.184Z,79.66
2023-06-30T17:37:36.102Z,79.66
2023-06-30T17:38:36.126Z,78.81
2023-06-30T17:39:36.142Z,78.11
2023-06-30T17:41:11.108Z,77.21
2023-06-30T17:42:09.137Z,78.11
2023-06-30T17:42:36.121Z,77.72
2023-06-30T17:44:54.645Z,78.31
2023-06-30T17:45:55.757Z,77.81
2023-06-30T17:47:28.363Z,76.54
2023-06-30T17:48:29.812Z,77.85
2023-06-30T17:48:55.794Z,77.95
2023-06-30T17:49:55.816Z,78.49
2023-06-30T17:50:55.758Z,78.29
2023-06-30T17:51:56.778Z,77.59
2023-06-30T17:52:56.450Z,76.28
2023-06-30T17:53:56.841Z,77.28
2023-06-30T17:54:55.749Z,77.48
2023-06-30T17:55:55.754Z,79.09
2023-06-30T17:56:55.753Z,79.83
2023-06-30T17:57:55.813Z,79.69
2023-06-30T17:58:55.703Z,79.63
2023-06-30T17:59:55.738Z,80.94
2023-06-30T18:00:55.676Z,80.43
2023-06-30T18:01:55.723Z,80.63
2023-06-30T18:02:55.707Z,81.18
2023-06-30T18:03:55.642Z,81.27
2023-06-30T18:04:56.499Z,81.27
2023-06-30T18:05:55.607Z,81.18
2023-06-30T18:06:55.637Z,81.68
2023-06-30T18:07:55.621Z,82.18
2023-06-30T18:08:56.392Z,81.68
2023-06-30T18:09:56.213Z,82.58
2023-06-30T18:11:08.576Z,82.89
2023-06-30T18:11:58.294Z,82.52
2023-06-30T18:12:55.622Z,82.89
2023-06-30T18:13:55.644Z,82.98
2023-06-30T18:14:56.220Z,82.89
2023-06-30T18:15:55.559Z,83.63
2023-06-30T18:16:55.524Z,83.93
2023-06-30T18:17:55.577Z,83.79
2023-06-30T18:18:55.539Z,84.03
2023-06-30T18:19:55.510Z,84.19
2023-06-30T18:20:55.517Z,84.53
2023-06-30T18:21:55.547Z,85.03
2023-06-30T18:22:55.543Z,84.23
2023-06-30T18:23:55.488Z,84.74
2023-06-30T18:24:55.492Z,84.53
2023-06-30T18:25:55.494Z,85.38
2023-06-30T18:26:55.464Z,84.83
2023-06-30T18:27:55.514Z,84.88
2023-06-30T18:28:56.239Z,84.97
2023-06-30T18:29:55.403Z,86.18
2023-06-30T18:30:55.439Z,85.78
2023-06-30T18:31:57.475Z,86.48
2023-06-30T18:32:55.477Z,86.68
2023-06-30T18:33:55.393Z,87.29
2023-06-30T18:34:55.436Z,86.58
2023-06-30T18:35:55.383Z,86.48
2023-06-30T18:36:55.445Z,86.12
2023-06-30T18:37:55.438Z,85.92
2023-06-30T18:38:55.387Z,85.72
2023-06-30T18:39:55.366Z,86.63
2023-06-30T18:40:55.351Z,86.22
2023-06-30T18:41:56.810Z,86.12
2023-06-30T18:42:55.401Z,85.62
2023-06-30T18:43:56.318Z,86.02
2023-06-30T18:44:55.323Z,86.22
2023-06-30T18:45:55.360Z,86.43
2023-06-30T18:46:55.936Z,86.63
2023-06-30T18:47:55.891Z,86.08
2023-06-30T18:48:56.006Z,85.31
2023-06-30T18:49:55.303Z,84.81
2023-06-30T18:50:55.260Z,84.11
2023-06-30T18:51:55.482Z,85.52
2023-06-30T18:52:55.248Z,86.38
2023-06-30T18:53:55.958Z,87.19
2023-06-30T18:54:55.260Z,87.53
2023-06-30T18:55:55.288Z,87.63
2023-06-30T18:56:55.271Z,87.59
2023-06-30T18:57:55.182Z,87.79
2023-06-30T18:58:55.218Z,88.03
2023-06-30T18:59:55.243Z,88.74
2023-06-30T19:00:55.233Z,89.04
2023-06-30T19:01:55.265Z,89.89
2023-06-30T19:02:55.276Z,90.09
2023-06-30T19:03:55.295Z,90.49
2023-06-30T19:04:55.297Z,90.99
2023-06-30T19:05:58.013Z,91.09
2023-06-30T19:06:55.176Z,90.73
2023-06-30T19:07:56.410Z,91.44
2023-06-30T19:08:55.253Z,91.24
2023-06-30T19:09:55.966Z,91.34
2023-06-30T19:10:55.912Z,92.05
2023-06-30T19:11:56.854Z,92.09
2023-06-30T19:12:55.180Z,92.69
2023-06-30T19:13:55.752Z,92.79
2023-06-30T19:14:55.090Z,92.79
2023-06-30T19:15:55.126Z,93.24
2023-06-30T19:16:55.372Z,93.30
2023-06-30T19:17:56.952Z,93.34
2023-06-30T19:18:55.971Z,94.05
2023-06-30T19:19:55.041Z,94.65
2023-06-30T19:20:55.735Z,94.55
2023-06-30T19:21:55.027Z,94.65
2023-06-30T19:22:55.063Z,94.70
2023-06-30T19:23:55.948Z,94.59
2023-06-30T19:24:55.047Z,94.29
2023-06-30T19:25:55.011Z,94.29
2023-06-30T19:26:54.992Z,94.90
2023-06-30T19:27:55.060Z,94.39
2023-06-30T19:28:55.018Z,94.59
2023-06-30T19:29:55.988Z,94.59
2023-06-30T19:30:56.965Z,94.70
2023-06-30T19:31:54.984Z,94.90
2023-06-30T19:32:55.033Z,94.80
2023-06-30T19:33:54.997Z,95.20
2023-06-30T19:34:54.987Z,94.90
2023-06-30T19:35:55.509Z,94.80
2023-06-30T19:36:55.011Z,95.50
2023-06-30T19:37:54.918Z,95.20
2023-06-30T19:38:55.860Z,95.61
2023-06-30T19:39:54.908Z,95.30
2023-06-30T19:40:54.952Z,95.85
2023-06-30T19:41:54.900Z,95.65
2023-06-30T19:42:54.871Z,95.65
2023-06-30T19:43:54.898Z,95.50
2023-06-30T19:44:54.944Z,95.55
2023-06-30T19:45:54.897Z,96.45
2023-06-30T19:46:54.888Z,95.85
2023-06-30T19:47:54.918Z,95.55
2023-06-30T19:48:57.070Z,95.65
2023-06-30T19:49:55.496Z,95.95
2023-06-30T19:50:55.456Z,95.65
2023-06-30T19:51:54.830Z,95.79
2023-06-30T19:52:54.805Z,95.59
2023-06-30T19:53:54.805Z,95.70
2023-06-30T19:54:54.809Z,95.59
2023-06-30T19:55:54.758Z,95.79
2023-06-30T19:56:54.869Z,96.10
2023-06-30T19:57:54.780Z,96.10
2023-06-30T19:58:54.781Z,96.30
2023-06-30T19:59:55.514Z,96.40
2023-06-30T20:00:55.533Z,96.30
2023-06-30T20:01:54.879Z,96.40
2023-06-30T20:02:54.809Z,96.30
2023-06-30T20:03:54.825Z,96.50
2023-06-30T20:04:54.836Z,96.60
2023-06-30T20:05:55.503Z,97.21
2023-06-30T20:06:54.716Z,97.11
2023-06-30T20:07:54.729Z,97.25
2023-06-30T20:08:54.698Z,97.61
2023-06-30T20:09:56.444Z,97.66
2023-06-30T20:10:55.015Z,97.25
2023-06-30T20:11:55.494Z,97.56
2023-06-30T20:12:54.736Z,97.96
2023-06-30T20:13:54.619Z,98.36
2023-06-30T20:14:55.464Z,98.27
2023-06-30T20:15:55.500Z,98.36
2023-06-30T20:16:55.492Z,98.27
2023-06-30T20:17:54.702Z,98.36
2023-06-30T20:18:55.612Z,98.51
2023-06-30T20:19:55.549Z,98.36
2023-06-30T20:20:54.581Z,98.47
2023-06-30T20:21:54.580Z,98.47
2023-06-30T20:22:54.600Z,98.27
2023-06-30T20:23:54.560Z,98.27
2023-06-30T20:24:54.656Z,98.61
2023-06-30T20:25:55.990Z,98.41
2023-06-30T20:26:54.601Z,98.61
2023-06-30T20:27:54.578Z,98.41
2023-06-30T20:28:54.521Z,98.46
2023-06-30T20:29:54.723Z,98.41
2023-06-30T20:30:55.568Z,98.25
2023-06-30T20:31:54.479Z,98.36
2023-06-30T20:32:54.552Z,98.16
2023-06-30T20:33:54.588Z,98.30
2023-06-30T20:34:54.485Z,98.40
2023-06-30T20:35:54.479Z,98.71
2023-06-30T20:36:54.514Z,98.61
2023-06-30T20:37:55.532Z,98.81
2023-06-30T20:38:54.446Z,98.55
2023-06-30T20:39:57.163Z,99.26
2023-06-30T20:40:55.478Z,98.75
2023-06-30T20:41:55.080Z,98.90
2023-06-30T20:42:54.462Z,98.80
2023-06-30T20:43:54.464Z,99.01
2023-06-30T20:44:54.429Z,99.01
2023-06-30T20:45:55.031Z,99.30
2023-06-30T20:46:55.452Z,99.41
2023-06-30T20:47:54.499Z,99.41
2023-06-30T20:48:54.396Z,99.25
2023-06-30T20:49:54.959Z,99.96
2023-06-30T20:50:54.363Z,99.66
2023-06-30T20:51:55.296Z,99.70
2023-06-30T20:52:55.389Z,99.50
2023-06-30T20:53:54.312Z,99.50
2023-06-30T20:54:55.340Z,99.50
2023-06-30T20:55:54.389Z,99.85
2023-06-30T20:56:54.996Z,99.95
2023-06-30T20:57:54.306Z,99.99
2023-06-30T20:58:55.783Z,99.99
2023-06-30T20:59:54.322Z,99.99
2023-06-30T21:00:54.278Z,99.99
2023-06-30T21:01:54.382Z,99.99
2023-06-30T21:02:54.370Z,99.99
2023-06-30T21:03:54.353Z,99.99
2023-06-30T21:04:54.333Z,99.99
2023-06-30T21:05:54.256Z,99.99
2023-06-30T21:06:54.278Z,99.99
2023-06-30T21:07:54.578Z,99.99
2023-06-30T21:08:55.302Z,99.99
2023-06-30T21:09:54.872Z,99.99
2023-06-30T21:10:55.860Z,99.99
2023-06-30T21:11:54.303Z,99.99
2023-06-30T21:12:54.191Z,99.99
2023-06-30T21:13:55.109Z,99.99
2023-06-30T21:14:54.218Z,99.99
2023-06-30T21:15:55.499Z,99.99
2023-06-30T21:16:54.146Z,99.99
2023-06-30T21:17:54.228Z,99.99
2023-06-30T21:18:54.794Z,99.99
2023-06-30T21:19:54.101Z,99.99
2023-06-30T21:20:55.023Z,99.99
2023-06-30T21:21:54.502Z,99.99
2023-06-30T21:22:54.110Z,99.99
2023-06-30T21:23:54.141Z,99.99
2023-06-30T21:24:54.102Z,99.99
2023-06-30T21:25:54.973Z,99.99
2023-06-30T21:26:54.948Z,99.99
2023-06-30T21:27:54.085Z,99.99
2023-06-30T21:28:54.041Z,99.99
2023-06-30T21:29:54.073Z,99.99
2023-06-30T21:30:54.054Z,99.99
2023-06-30T21:31:54.818Z,99.99
2023-06-30T21:32:54.014Z,99.99
2023-06-30T21:33:54.018Z,99.99
2023-06-30T21:34:54.795Z,99.99
2023-06-30T21:35:54.031Z,99.99
2023-06-30T21:36:54.029Z,99.99
2023-06-30T21:37:53.990Z,99.99
2023-06-30T21:38:54.491Z,99.99
2023-06-30T21:39:53.977Z,99.99
2023-06-30T21:40:54.174Z,99.99
2023-06-30T21:41:53.959Z,99.99
2023-06-30T21:42:53.974Z,99.99
2023-06-30T21:43:53.933Z,99.99
2023-06-30T21:44:54.988Z,99.99
2023-06-30T21:45:54.079Z,99.99
2023-06-30T21:46:54.899Z,99.99
2023-06-30T21:47:53.917Z,99.99
2023-06-30T21:48:53.883Z,99.99
2023-06-30T21:49:53.867Z,99.99
2023-06-30T21:50:55.642Z,99.99
2023-06-30T21:51:54.548Z,99.99
2023-06-30T21:52:53.871Z,99.99
2023-06-30T21:53:54.516Z,99.99
2023-06-30T21:54:53.924Z,99.99
2023-06-30T21:55:53.877Z,99.99
2023-06-30T21:56:53.834Z,99.99
2023-06-30T21:57:53.894Z,99.99
2023-06-30T21:58:53.823Z,99.99
2023-06-30T21:59:53.846Z,99.99
2023-06-30T22:00:55.232Z,99.99
2023-06-30T22:01:53.953Z,99.99
2023-06-30T22:02:53.837Z,99.99
2023-06-30T22:03:53.880Z,99.99
2023-06-30T22:04:54.835Z,99.99
2023-06-30T22:05:55.399Z,99.99
2023-06-30T22:06:53.776Z,99.99
2023-06-30T22:07:53.756Z,99.99
2023-06-30T22:08:57.520Z,99.99
2023-06-30T22:09:56.433Z,99.99
2023-06-30T22:10:53.813Z,99.99
2023-06-30T22:11:56.418Z,99.99
2023-06-30T22:12:55.471Z,99.99
2023-06-30T22:13:53.719Z,99.99
2023-06-30T22:14:53.722Z,99.99
2023-06-30T22:15:53.770Z,99.99
2023-06-30T22:16:53.667Z,99.99
2023-06-30T22:17:53.662Z,99.99
2023-06-30T22:18:53.928Z,99.99
2023-06-30T22:19:53.694Z,99.99
2023-06-30T22:20:54.504Z,99.99
2023-06-30T22:21:53.628Z,99.99
2023-06-30T22:22:53.672Z,99.99
2023-06-30T22:23:53.680Z,99.99
2023-06-30T22:24:53.671Z,99.99
2023-06-30T22:25:53.679Z,99.99
2023-06-30T22:26:53.618Z,99.99
2023-06-30T22:27:53.617Z,99.99
2023-06-30T22:28:54.482Z,99.99
2023-06-30T22:29:55.566Z,99.99
2023-06-30T22:30:55.115Z,99.99
2023-06-30T22:31:54.513Z,99.99
2023-06-30T22:32:53.679Z,99.99
2023-06-30T22:33:53.587Z,99.99
2023-06-30T22:34:54.943Z,99.99
2023-06-30T22:35:53.591Z,99.99
2023-06-30T22:36:53.503Z,99.99
2023-06-30T22:37:54.400Z,99.99
2023-06-30T22:38:53.508Z,99.99
2023-06-30T22:39:54.506Z,99.99
2023-06-30T22:40:54.370Z,99.99
2023-06-30T22:41:53.492Z,99.99
2023-06-30T22:42:54.090Z,99.99
2023-06-30T22:43:54.006Z,99.99
2023-06-30T22:44:53.493Z,99.99
2023-06-30T22:45:56.066Z,99.99
2023-06-30T22:46:53.491Z,99.99
2023-06-30T22:47:53.465Z,99.99
2023-06-30T22:48:53.455Z,99.99
2023-06-30T22:49:53.998Z,99.99
2023-06-30T22:50:54.029Z,99.99
2023-06-30T22:51:54.406Z,99.99
2023-06-30T22:52:53.417Z,99.99
2023-06-30T22:53:54.395Z,99.99
2023-06-30T22:54:54.880Z,99.99
2023-06-30T22:55:53.352Z,99.99
2023-06-30T22:56:54.069Z,99.99
2023-06-30T22:57:54.793Z,99.99
2023-06-30T22:58:53.439Z,99.99
2023-06-30T22:59:53.539Z,99.99
2023-06-30T23:00:53.341Z,99.99
2023-06-30T23:01:53.350Z,99.99
2023-06-30T23:02:53.646Z,99.99
2023-06-30T23:03:53.345Z,99.99
2023-06-30T23:04:55.029Z,99.99
2023-06-30T23:05:53.310Z,99.99
2023-06-30T23:06:53.296Z,99.99
2023-06-30T23:07:56.012Z,99.99
2023-06-30T23:08:53.898Z,99.99
2023-06-30T23:09:54.043Z,99.99
2023-06-30T23:10:53.906Z,99.99
2023-06-30T23:11:53.287Z,99.99
2023-06-30T23:12:53.312Z,99.99
2023-06-30T23:13:54.064Z,99.99
2023-06-30T23:14:53.225Z,99.99
2023-06-30T23:15:53.254Z,99.99
2023-06-30T23:16:54.908Z,99.99
2023-06-30T23:17:53.365Z,99.99
2023-06-30T23:18:53.296Z,99.99
2023-06-30T23:19:53.177Z,99.99
2023-06-30T23:20:53.186Z,99.99
2023-06-30T23:21:53.192Z,99.99
2023-06-30T23:22:53.176Z,99.99
2023-06-30T23:23:53.205Z,99.99
2023-06-30T23:24:53.122Z,99.99
2023-06-30T23:25:53.122Z,99.99
2023-06-30T23:26:53.152Z,99.99
2023-06-30T23:27:53.139Z,99.99
2023-06-30T23:28:53.135Z,99.99
2023-06-30T23:29:54.149Z,99.99
2023-06-30T23:30:53.364Z,99.99
2023-06-30T23:31:53.079Z,99.99
2023-06-30T23:32:53.107Z,99.99
2023-06-30T23:33:53.121Z,99.99
2023-06-30T23:34:54.055Z,99.99
2023-06-30T23:35:53.097Z,99.99
2023-06-30T23:36:53.059Z,99.99
2023-06-30T23:37:53.135Z,99.99
2023-06-30T23:38:53.091Z,99.99
2023-06-30T23:39:53.121Z,99.99
2023-06-30T23:40:53.036Z,99.99
2023-06-30T23:41:53.028Z,99.99
2023-06-30T23:42:54.916Z,99.99
2023-06-30T23:43:53.005Z,99.99
2023-06-30T23:44:53.009Z,99.99
2023-06-30T23:45:53.030Z,99.99
2023-06-30T23:46:52.985Z,99.99
2023-06-30T23:47:55.921Z,99.99
2023-06-30T23:48:53.010Z,99.99
2023-06-30T23:49:52.999Z,99.99
2023-06-30T23:50:54.011Z,99.99
2023-06-30T23:51:52.928Z,99.99
2023-06-30T23:52:52.922Z,99.99
2023-06-30T23:53:52.949Z,99.99
2023-06-30T23:54:52.937Z,99.99
2023-06-30T23:55:52.996Z,99.99
2023-06-30T23:56:52.894Z,99.99
2023-06-30T23:57:52.925Z,99.99
2023-06-30T23:58:52.884Z,99.99
2023-06-30T23:59:52.880Z,99.99
